createdAt,value
2022-11-23T00:00:18.736Z,2.05
2022-11-23T00:02:45.849Z,1.88
2022-11-23T00:05:12.985Z,1.98
2022-11-23T00:07:40.194Z,1.92
2022-11-23T00:10:07.524Z,1.92
2022-11-23T00:12:34.608Z,1.90
2022-11-23T00:15:01.720Z,1.58
2022-11-23T00:17:28.847Z,2.03
2022-11-23T00:19:56.011Z,2.10
2022-11-23T00:22:23.462Z,2.15
2022-11-23T00:24:50.679Z,1.80
2022-11-23T00:27:17.822Z,2.20
2022-11-23T00:29:44.915Z,2.08
2022-11-23T00:32:12.038Z,2.05
2022-11-23T00:34:39.158Z,2.38
2022-11-23T00:37:06.336Z,1.73
2022-11-23T00:39:33.646Z,1.70
2022-11-23T00:42:00.873Z,1.80
2022-11-23T00:44:28.021Z,1.83
2022-11-23T00:46:55.193Z,2.13
2022-11-23T00:49:22.402Z,1.88
2022-11-23T00:51:49.538Z,1.80
2022-11-23T00:54:16.717Z,2.28
2022-11-23T00:56:43.862Z,2.05
2022-11-23T00:59:11.041Z,2.30
2022-11-23T01:01:38.275Z,1.85
2022-11-23T01:04:09.054Z,1.80
2022-11-23T01:06:40.193Z,2.00
2022-11-23T01:09:16.101Z,2.35
2022-11-23T01:11:43.226Z,1.90
2022-11-23T01:14:10.844Z,2.30
2022-11-23T01:16:39.452Z,2.20
2022-11-23T01:19:07.937Z,1.90
2022-11-23T01:21:35.932Z,1.83
2022-11-23T01:24:06.921Z,1.80
2022-11-23T01:26:34.126Z,2.00
2022-11-23T01:29:01.339Z,2.70
2022-11-23T01:31:28.456Z,1.90
2022-11-23T01:33:59.613Z,2.53
2022-11-23T01:36:28.295Z,1.90
2022-11-23T01:38:55.770Z,2.42
2022-11-23T01:41:24.008Z,2.25
2022-11-23T01:43:51.474Z,1.98
2022-11-23T01:46:19.035Z,2.05
2022-11-23T01:49:00.032Z,1.90
2022-11-23T01:51:29.261Z,3.13
2022-11-23T01:53:58.564Z,2.83
2022-11-23T01:56:27.612Z,2.50
2022-11-23T01:58:55.256Z,2.35
2022-11-23T02:01:22.455Z,2.00
2022-11-23T02:03:49.873Z,2.83
2022-11-23T02:06:20.630Z,2.28
2022-11-23T02:08:48.680Z,2.58
2022-11-23T02:11:16.493Z,2.13
2022-11-23T02:13:44.973Z,2.70
2022-11-23T02:16:12.421Z,1.90
2022-11-23T02:18:40.637Z,2.05
2022-11-23T02:21:07.778Z,1.75
2022-11-23T02:23:34.829Z,1.80
2022-11-23T02:26:14.004Z,1.55
2022-11-23T02:28:43.907Z,2.05
2022-11-23T02:31:11.074Z,1.65
2022-11-23T02:33:39.144Z,2.10
2022-11-23T02:36:26.003Z,2.05
2022-11-23T02:38:54.574Z,2.20
2022-11-23T02:41:21.674Z,2.20
2022-11-23T02:43:53.449Z,2.40
2022-11-23T02:46:20.551Z,2.13
2022-11-23T02:48:47.707Z,2.35
2022-11-23T02:51:15.083Z,1.52
2022-11-23T02:53:42.153Z,1.98
2022-11-23T02:56:09.283Z,2.58
2022-11-23T02:58:36.420Z,2.50
2022-11-23T03:01:03.691Z,2.92
2022-11-23T03:03:30.937Z,2.40
2022-11-23T03:05:58.089Z,2.30
2022-11-23T03:08:25.260Z,2.40
2022-11-23T03:10:52.373Z,2.30
2022-11-23T03:13:19.570Z,2.28
2022-11-23T03:15:46.825Z,2.25
2022-11-23T03:18:13.942Z,2.20
2022-11-23T03:20:41.398Z,3.30
2022-11-23T03:23:08.498Z,3.40
2022-11-23T03:25:35.573Z,2.25
2022-11-23T03:28:02.725Z,2.40
2022-11-23T03:30:31.446Z,2.38
2022-11-23T03:32:58.571Z,2.40
2022-11-23T03:35:25.744Z,2.10
2022-11-23T03:37:53.095Z,2.50
2022-11-23T03:40:20.216Z,2.10
2022-11-23T03:42:47.296Z,2.00
2022-11-23T03:45:14.458Z,2.20
2022-11-23T03:47:41.576Z,1.80
2022-11-23T03:50:08.938Z,2.25
2022-11-23T03:52:36.079Z,1.70
2022-11-23T03:55:03.277Z,1.73
2022-11-23T03:57:30.379Z,1.80
2022-11-23T03:59:57.474Z,1.67
2022-11-23T04:02:24.662Z,1.45
2022-11-23T04:04:51.841Z,1.70
2022-11-23T04:07:19.082Z,1.75
2022-11-23T04:09:46.261Z,1.77
2022-11-23T04:12:13.471Z,1.65
2022-11-23T04:14:40.585Z,1.48
2022-11-23T04:17:07.722Z,1.92
2022-11-23T04:19:35.019Z,1.73
2022-11-23T04:22:02.257Z,1.67
2022-11-23T04:24:29.403Z,1.40
2022-11-23T04:26:56.524Z,1.80
2022-11-23T04:29:23.603Z,2.28
2022-11-23T04:31:50.781Z,3.00
2022-11-23T04:34:17.913Z,2.20
2022-11-23T04:36:45.071Z,2.10
2022-11-23T04:39:12.624Z,2.30
2022-11-23T04:41:40.139Z,2.28
2022-11-23T04:44:07.299Z,2.90
2022-11-23T04:46:35.586Z,3.58
2022-11-23T04:49:02.783Z,7.43
2022-11-23T04:51:29.932Z,8.50
2022-11-23T04:53:57.020Z,9.77
2022-11-23T04:56:24.265Z,7.60
2022-11-23T04:58:51.331Z,6.45
2022-11-23T05:01:18.489Z,5.78
2022-11-23T05:03:45.585Z,5.13
2022-11-23T05:06:12.677Z,5.05
2022-11-23T05:08:39.909Z,4.40
2022-11-23T05:11:07.041Z,4.28
2022-11-23T05:13:34.131Z,3.20
2022-11-23T05:16:01.256Z,3.00
2022-11-23T05:18:28.396Z,3.08
2022-11-23T05:20:55.488Z,3.08
2022-11-23T05:23:22.609Z,2.67
2022-11-23T05:25:49.733Z,2.65
2022-11-23T05:28:39.225Z,2.42
2022-11-23T05:31:05.536Z,3.10
2022-11-23T05:33:32.656Z,2.25
2022-11-23T05:35:59.781Z,2.70
2022-11-23T05:38:26.978Z,3.00
2022-11-23T05:40:54.210Z,3.17
2022-11-23T05:43:21.327Z,2.97
2022-11-23T05:45:48.474Z,3.40
2022-11-23T05:48:15.702Z,3.92
2022-11-23T05:50:42.956Z,3.05
2022-11-23T05:53:10.174Z,4.70
2022-11-23T05:55:37.261Z,11.52
2022-11-23T05:58:04.393Z,11.25
2022-11-23T06:00:31.493Z,9.77
2022-11-23T06:03:02.194Z,8.15
2022-11-23T06:05:29.601Z,6.88
2022-11-23T06:07:56.708Z,8.70
2022-11-23T06:10:23.872Z,8.55
2022-11-23T06:12:52.536Z,8.45
2022-11-23T06:15:19.631Z,7.32
2022-11-23T06:17:46.768Z,8.38
2022-11-23T06:20:13.974Z,5.30
2022-11-23T06:22:41.126Z,4.38
2022-11-23T06:25:08.366Z,4.55
2022-11-23T06:27:35.488Z,6.10
2022-11-23T06:30:02.588Z,6.20
2022-11-23T06:32:29.724Z,8.85
2022-11-23T06:35:00.788Z,7.97
2022-11-23T06:37:28.419Z,5.43
2022-11-23T06:39:55.519Z,6.82
2022-11-23T06:42:39.756Z,5.97
2022-11-23T06:45:07.776Z,5.60
2022-11-23T06:47:34.913Z,6.30
2022-11-23T06:50:02.074Z,5.35
2022-11-23T06:52:29.309Z,4.90
2022-11-23T06:54:56.428Z,5.75
2022-11-23T06:57:23.588Z,5.13
2022-11-23T06:59:50.741Z,5.85
2022-11-23T07:02:17.827Z,6.43
2022-11-23T07:04:45.045Z,5.88
2022-11-23T07:07:12.214Z,6.45
2022-11-23T07:09:39.399Z,5.80
2022-11-23T07:12:06.706Z,4.70
2022-11-23T07:14:33.841Z,5.10
2022-11-23T07:17:00.920Z,4.70
2022-11-23T07:19:28.053Z,5.28
2022-11-23T07:21:55.161Z,5.10
2022-11-23T07:24:22.256Z,6.55
2022-11-23T07:26:49.392Z,7.85
2022-11-23T07:29:16.545Z,5.70
2022-11-23T07:31:43.687Z,4.75
2022-11-23T07:34:11.285Z,6.22
2022-11-23T07:36:38.420Z,4.97
2022-11-23T07:39:05.633Z,5.40
2022-11-23T07:41:32.728Z,5.72
2022-11-23T07:43:59.876Z,5.15
2022-11-23T07:46:27.252Z,4.25
2022-11-23T07:48:59.189Z,5.53
2022-11-23T07:51:26.305Z,4.17
2022-11-23T07:53:53.451Z,3.90
2022-11-23T07:56:20.566Z,5.10
2022-11-23T07:58:47.748Z,6.25
2022-11-23T08:01:17.906Z,7.65
2022-11-23T08:03:48.843Z,6.75
2022-11-23T08:06:16.424Z,7.05
2022-11-23T08:08:43.619Z,4.43
2022-11-23T08:11:14.662Z,6.35
2022-11-23T08:13:41.835Z,3.97
2022-11-23T08:16:09.042Z,5.45
2022-11-23T08:18:36.168Z,4.88
2022-11-23T08:21:03.557Z,5.13
2022-11-23T08:23:30.813Z,5.35
2022-11-23T08:25:57.979Z,3.72
2022-11-23T08:28:25.095Z,5.07
2022-11-23T08:30:52.227Z,3.35
2022-11-23T08:33:19.421Z,3.42
2022-11-23T08:35:46.595Z,4.68
2022-11-23T08:38:13.773Z,4.30
2022-11-23T08:40:41.216Z,3.08
2022-11-23T08:43:08.360Z,3.90
2022-11-23T08:45:35.514Z,2.83
2022-11-23T08:48:03.615Z,3.00
2022-11-23T08:50:30.882Z,4.50
2022-11-23T08:52:59.013Z,1.80
2022-11-23T08:55:26.807Z,1.65
2022-11-23T08:58:00.147Z,1.58
2022-11-23T09:00:27.566Z,1.40
2022-11-23T09:02:58.780Z,2.55
2022-11-23T09:05:26.228Z,1.63
2022-11-23T09:07:53.411Z,1.60
2022-11-23T09:10:20.616Z,2.17
2022-11-23T09:12:48.242Z,1.75
2022-11-23T09:15:15.711Z,1.70
2022-11-23T09:17:42.903Z,1.75
2022-11-23T09:20:10.288Z,1.80
2022-11-23T09:22:37.440Z,1.60
2022-11-23T09:25:05.074Z,1.63
2022-11-23T09:27:32.674Z,1.10
2022-11-23T09:29:59.733Z,1.08
2022-11-23T09:32:27.755Z,1.60
2022-11-23T09:34:54.884Z,1.30
2022-11-23T09:37:22.043Z,1.10
2022-11-23T09:39:49.171Z,1.98
2022-11-23T09:42:36.503Z,1.67
2022-11-23T09:45:09.655Z,2.03
2022-11-23T09:47:55.494Z,1.50
2022-11-23T09:50:29.005Z,1.70
2022-11-23T09:52:56.278Z,1.40
2022-11-23T09:55:23.426Z,1.50
2022-11-23T09:57:55.318Z,1.33
2022-11-23T10:00:23.541Z,1.60
2022-11-23T10:02:50.838Z,1.20
2022-11-23T10:05:19.566Z,1.52
2022-11-23T10:07:52.715Z,1.58
2022-11-23T10:10:28.191Z,1.55
2022-11-23T10:13:01.494Z,1.80
2022-11-23T10:15:32.504Z,1.55
2022-11-23T10:17:59.663Z,1.80
2022-11-23T10:20:50.425Z,1.65
2022-11-23T10:23:30.337Z,1.67
2022-11-23T10:25:57.583Z,1.92
2022-11-23T10:28:24.760Z,1.30
2022-11-23T10:30:57.384Z,1.65
2022-11-23T10:33:31.549Z,1.52
2022-11-23T10:35:58.722Z,1.35
2022-11-23T10:38:26.901Z,1.50
2022-11-23T10:41:09.217Z,1.50
2022-11-23T10:43:39.196Z,1.50
2022-11-23T10:46:24.864Z,1.80
2022-11-23T10:48:52.734Z,1.55
2022-11-23T10:51:23.008Z,1.50
2022-11-23T10:54:05.106Z,1.15
2022-11-23T10:56:33.265Z,1.58
2022-11-23T10:59:00.507Z,1.65
2022-11-23T11:01:29.652Z,1.80
2022-11-23T11:03:57.671Z,1.73
2022-11-23T11:06:25.881Z,1.50
2022-11-23T11:08:55.032Z,1.73
2022-11-23T11:11:26.382Z,1.40
2022-11-23T11:14:02.196Z,1.60
2022-11-23T11:16:36.526Z,1.10
2022-11-23T11:19:22.478Z,1.20
2022-11-23T11:21:49.588Z,1.50
2022-11-23T11:24:26.676Z,1.48
2022-11-23T11:26:58.364Z,1.35
2022-11-23T11:29:40.065Z,1.05
2022-11-23T11:32:27.577Z,1.42
2022-11-23T11:34:58.414Z,1.25
2022-11-23T11:37:34.913Z,1.67
2022-11-23T11:40:02.015Z,1.30
2022-11-23T11:42:37.378Z,1.50
2022-11-23T11:45:05.784Z,1.35
2022-11-23T11:47:35.220Z,1.20
2022-11-23T11:50:03.509Z,1.20
2022-11-23T11:52:33.560Z,1.55
2022-11-23T11:55:12.944Z,1.17
2022-11-23T11:57:46.372Z,1.20
2022-11-23T12:00:18.877Z,1.30
2022-11-23T12:03:00.466Z,1.38
2022-11-23T12:05:33.467Z,1.27
2022-11-23T12:08:06.457Z,1.38
2022-11-23T12:10:37.496Z,1.08
2022-11-23T12:13:04.944Z,1.13
2022-11-23T12:15:49.336Z,1.33
2022-11-23T12:18:20.104Z,1.15
2022-11-23T12:20:47.293Z,1.33
2022-11-23T12:23:17.426Z,1.02
2022-11-23T12:26:04.903Z,1.05
2022-11-23T12:28:50.705Z,1.38
2022-11-23T12:31:25.229Z,1.20
2022-11-23T12:34:04.537Z,1.60
2022-11-23T12:36:40.179Z,0.65
2022-11-23T12:39:25.463Z,1.00
2022-11-23T12:41:55.326Z,0.77
2022-11-23T12:44:41.267Z,0.93
2022-11-23T12:47:17.354Z,0.80
2022-11-23T12:49:46.788Z,0.60
2022-11-23T12:52:32.637Z,0.60
2022-11-23T12:55:09.042Z,0.80
2022-11-23T12:57:50.242Z,0.70
2022-11-23T13:00:21.324Z,0.93
2022-11-23T13:02:48.378Z,1.00
2022-11-23T13:05:27.613Z,0.55
2022-11-23T13:08:10.064Z,0.80
2022-11-23T13:10:44.072Z,0.90
2022-11-23T13:13:24.439Z,0.98
2022-11-23T13:16:00.956Z,0.90
2022-11-23T13:18:46.837Z,0.60
2022-11-23T13:21:28.103Z,0.90
2022-11-23T13:23:55.194Z,0.70
2022-11-23T13:26:26.422Z,1.10
2022-11-23T13:28:54.247Z,1.02
2022-11-23T13:31:24.726Z,0.85
2022-11-23T13:33:59.474Z,1.00
2022-11-23T13:37:04.414Z,1.10
2022-11-23T13:39:41.118Z,0.88
2022-11-23T13:42:10.943Z,0.77
2022-11-23T13:44:38.344Z,1.20
2022-11-23T13:47:05.507Z,0.82
2022-11-23T13:49:59.064Z,1.27
2022-11-23T13:52:27.929Z,0.85
2022-11-23T13:55:05.561Z,0.80
2022-11-23T13:57:36.584Z,1.10
2022-11-23T14:00:22.607Z,1.20
2022-11-23T14:02:49.757Z,0.90
2022-11-23T14:05:36.758Z,1.10
2022-11-23T14:08:04.455Z,0.90
2022-11-23T14:10:32.584Z,1.00
2022-11-23T14:13:07.530Z,1.20
2022-11-23T14:15:36.376Z,1.23
2022-11-23T14:18:22.005Z,0.93
2022-11-23T14:20:52.177Z,0.85
2022-11-23T14:23:37.734Z,1.20
2022-11-23T14:26:23.619Z,0.85
2022-11-23T14:29:00.243Z,1.08
2022-11-23T14:31:33.447Z,0.98
2022-11-23T14:34:03.646Z,1.20
2022-11-23T14:36:53.711Z,1.15
2022-11-23T14:39:39.479Z,3.63
2022-11-23T14:42:12.134Z,2.78
2022-11-23T14:44:40.596Z,0.98
2022-11-23T14:47:08.960Z,0.75
2022-11-23T14:49:36.719Z,1.33
2022-11-23T14:52:04.868Z,0.88
2022-11-23T14:54:32.832Z,0.80
2022-11-23T14:57:01.407Z,1.00
2022-11-23T14:59:30.280Z,0.80
2022-11-23T15:01:57.367Z,1.02
2022-11-23T15:04:26.104Z,1.35
2022-11-23T15:06:56.611Z,1.20
2022-11-23T15:09:37.753Z,2.50
2022-11-23T15:12:23.846Z,2.05
2022-11-23T15:14:51.551Z,2.10
2022-11-23T15:17:20.702Z,2.47
2022-11-23T15:19:58.124Z,2.08
2022-11-23T15:22:25.605Z,2.45
2022-11-23T15:24:52.787Z,2.08
2022-11-23T15:27:29.939Z,2.70
2022-11-23T15:29:58.223Z,2.38
2022-11-23T15:32:32.149Z,2.15
2022-11-23T15:35:01.833Z,2.65
2022-11-23T15:37:28.990Z,2.30
2022-11-23T15:39:56.627Z,2.20
2022-11-23T15:42:25.320Z,2.50
2022-11-23T15:44:53.094Z,2.75
2022-11-23T15:47:27.681Z,2.67
2022-11-23T15:50:02.765Z,2.22
2022-11-23T15:52:35.637Z,2.28
2022-11-23T15:55:10.098Z,3.60
2022-11-23T15:57:37.961Z,4.25
2022-11-23T16:00:05.922Z,3.83
2022-11-23T16:02:33.483Z,3.97
2022-11-23T16:05:13.165Z,3.47
2022-11-23T16:07:57.539Z,11.27
2022-11-23T16:10:26.011Z,6.43
2022-11-23T16:12:55.018Z,6.88
2022-11-23T16:15:29.125Z,4.80
2022-11-23T16:17:56.297Z,4.30
2022-11-23T16:20:24.667Z,3.40
2022-11-23T16:22:52.312Z,4.03
2022-11-23T16:25:27.168Z,3.75
2022-11-23T16:28:00.187Z,3.88
2022-11-23T16:30:28.735Z,3.58
2022-11-23T16:32:55.921Z,3.70
2022-11-23T16:35:23.014Z,2.78
2022-11-23T16:37:50.118Z,2.20
2022-11-23T16:40:17.297Z,2.20
2022-11-23T16:42:44.765Z,2.10
2022-11-23T16:45:12.027Z,1.73
2022-11-23T16:47:51.689Z,2.47
2022-11-23T16:50:18.757Z,2.40
2022-11-23T16:52:45.925Z,2.58
2022-11-23T16:55:13.207Z,2.20
2022-11-23T16:57:40.611Z,2.50
2022-11-23T17:00:09.131Z,1.98
2022-11-23T17:02:36.290Z,2.00
2022-11-23T17:05:03.604Z,1.75
2022-11-23T17:07:30.796Z,2.47
2022-11-23T17:09:59.104Z,3.30
2022-11-23T17:12:26.310Z,3.70
2022-11-23T17:14:53.410Z,2.95
2022-11-23T17:17:21.996Z,3.40
2022-11-23T17:19:49.764Z,2.17
2022-11-23T17:22:23.125Z,2.65
2022-11-23T17:24:52.684Z,2.80
2022-11-23T17:27:22.923Z,2.63
2022-11-23T17:29:54.586Z,1.95
2022-11-23T17:32:21.687Z,2.60
2022-11-23T17:34:48.846Z,2.05
2022-11-23T17:37:18.091Z,1.60
2022-11-23T17:39:45.398Z,1.50
2022-11-23T17:42:12.943Z,3.55
2022-11-23T17:44:40.340Z,5.20
2022-11-23T17:47:08.431Z,6.90
2022-11-23T17:49:35.859Z,2.97
2022-11-23T17:52:03.334Z,2.97
2022-11-23T17:54:30.451Z,1.70
2022-11-23T17:56:57.760Z,2.00
2022-11-23T17:59:24.938Z,1.83
2022-11-23T18:01:52.135Z,1.20
2022-11-23T18:04:19.415Z,1.58
2022-11-23T18:06:46.572Z,1.30
2022-11-23T18:09:13.803Z,1.45
2022-11-23T18:11:40.896Z,1.52
2022-11-23T18:14:08.072Z,1.50
2022-11-23T18:16:35.395Z,1.90
2022-11-23T18:19:02.535Z,1.88
2022-11-23T18:21:29.642Z,3.60
2022-11-23T18:24:01.446Z,3.20
2022-11-23T18:26:31.754Z,8.55
2022-11-23T18:28:58.952Z,7.18
2022-11-23T18:31:26.265Z,1.98
2022-11-23T18:33:53.499Z,4.18
2022-11-23T18:36:20.891Z,5.45
2022-11-23T18:38:48.849Z,2.75
2022-11-23T18:41:16.930Z,2.25
2022-11-23T18:43:44.769Z,2.17
2022-11-23T18:46:12.867Z,2.47
2022-11-23T18:48:40.030Z,2.30
2022-11-23T18:51:11.723Z,2.90
2022-11-23T18:53:38.973Z,2.10
2022-11-23T18:56:06.959Z,3.17
2022-11-23T18:58:34.567Z,3.58
2022-11-23T19:01:13.049Z,3.83
2022-11-23T19:03:41.580Z,2.75
2022-11-23T19:06:11.837Z,3.67
2022-11-23T19:08:40.437Z,2.35
2022-11-23T19:11:08.423Z,2.83
2022-11-23T19:13:36.919Z,5.15
2022-11-23T19:16:10.833Z,3.00
2022-11-23T19:18:38.190Z,3.03
2022-11-23T19:21:25.520Z,5.60
2022-11-23T19:23:53.600Z,5.07
2022-11-23T19:26:21.074Z,4.18
2022-11-23T19:28:48.426Z,4.35
2022-11-23T19:31:17.890Z,3.85
2022-11-23T19:33:45.555Z,3.75
2022-11-23T19:36:14.159Z,3.58
2022-11-23T19:38:41.620Z,2.45
2022-11-23T19:41:08.944Z,3.60
2022-11-23T19:43:36.078Z,4.95
2022-11-23T19:46:04.904Z,3.03
2022-11-23T19:48:33.108Z,3.13
2022-11-23T19:51:05.347Z,5.50
2022-11-23T19:53:33.457Z,3.70
2022-11-23T19:56:01.792Z,3.95
2022-11-23T19:58:30.993Z,3.35
2022-11-23T20:01:05.712Z,3.90
2022-11-23T20:03:36.086Z,8.30
2022-11-23T20:06:05.588Z,4.93
2022-11-23T20:08:32.695Z,4.63
2022-11-23T20:11:05.797Z,4.70
2022-11-23T20:13:32.919Z,5.30
2022-11-23T20:16:10.562Z,4.75
2022-11-23T20:18:37.728Z,4.47
2022-11-23T20:21:04.944Z,5.18
2022-11-23T20:23:32.107Z,5.85
2022-11-23T20:25:59.311Z,4.28
2022-11-23T20:28:26.467Z,5.60
2022-11-23T20:30:53.727Z,5.40
2022-11-23T20:33:21.418Z,5.03
2022-11-23T20:35:49.061Z,6.43
2022-11-23T20:38:17.419Z,5.80
2022-11-23T20:40:44.720Z,6.50
2022-11-23T20:43:11.861Z,6.45
2022-11-23T20:45:38.992Z,7.70
2022-11-23T20:48:07.230Z,7.70
2022-11-23T20:50:34.359Z,11.15
2022-11-23T20:53:02.318Z,10.57
2022-11-23T20:55:31.849Z,10.93
2022-11-23T20:57:59.011Z,9.52
2022-11-23T21:00:26.203Z,10.73
2022-11-23T21:02:54.005Z,9.55
2022-11-23T21:05:21.437Z,9.15
2022-11-23T21:07:49.067Z,9.68
2022-11-23T21:10:34.969Z,8.63
2022-11-23T21:13:21.026Z,7.90
2022-11-23T21:15:48.185Z,6.97
2022-11-23T21:18:15.370Z,5.68
2022-11-23T21:20:43.337Z,6.43
2022-11-23T21:23:10.831Z,5.85
2022-11-23T21:25:37.972Z,5.38
2022-11-23T21:28:05.144Z,4.97
2022-11-23T21:30:32.284Z,5.40
2022-11-23T21:32:59.365Z,5.80
2022-11-23T21:35:26.530Z,5.57
2022-11-23T21:37:53.696Z,4.70
2022-11-23T21:40:20.853Z,5.57
2022-11-23T21:42:48.193Z,5.18
2022-11-23T21:45:15.375Z,4.75
2022-11-23T21:47:43.164Z,3.58
2022-11-23T21:50:10.535Z,4.50
2022-11-23T21:52:37.710Z,4.28
2022-11-23T21:55:05.026Z,3.70
2022-11-23T21:57:32.149Z,4.03
2022-11-23T21:59:59.318Z,3.88
2022-11-23T22:02:26.508Z,3.00
2022-11-23T22:04:53.680Z,2.35
2022-11-23T22:07:21.108Z,3.30
2022-11-23T22:09:48.401Z,3.13
2022-11-23T22:12:15.589Z,2.92
2022-11-23T22:14:42.726Z,2.63
2022-11-23T22:17:09.900Z,3.40
2022-11-23T22:19:37.037Z,3.00
2022-11-23T22:22:05.490Z,3.35
2022-11-23T22:24:32.870Z,2.80
2022-11-23T22:27:00.130Z,3.53
2022-11-23T22:29:27.269Z,2.83
2022-11-23T22:31:54.458Z,4.00
2022-11-23T22:34:21.665Z,3.72
2022-11-23T22:36:51.433Z,2.83
2022-11-23T22:39:18.584Z,3.60
2022-11-23T22:41:46.766Z,3.40
2022-11-23T22:44:13.917Z,2.92
2022-11-23T22:46:41.128Z,3.28
2022-11-23T22:49:08.641Z,2.70
2022-11-23T22:51:35.782Z,3.47
2022-11-23T22:54:03.333Z,3.67
2022-11-23T22:56:31.300Z,3.58
2022-11-23T22:58:58.505Z,3.10
2022-11-23T23:01:27.150Z,3.30
2022-11-23T23:03:55.596Z,3.20
2022-11-23T23:06:24.124Z,2.95
2022-11-23T23:08:55.936Z,3.00
2022-11-23T23:11:23.862Z,4.13
2022-11-23T23:13:51.022Z,3.55
2022-11-23T23:16:18.263Z,3.50
2022-11-23T23:18:45.843Z,4.50
2022-11-23T23:21:14.400Z,4.00
2022-11-23T23:23:43.008Z,3.58
2022-11-23T23:26:10.729Z,4.30
2022-11-23T23:28:37.885Z,3.97
2022-11-23T23:31:06.399Z,2.85
2022-11-23T23:33:33.889Z,4.22
2022-11-23T23:36:08.127Z,4.07
2022-11-23T23:38:36.209Z,4.20
2022-11-23T23:41:03.602Z,3.92
2022-11-23T23:43:31.141Z,3.50
2022-11-23T23:45:59.013Z,4.70
2022-11-23T23:48:28.615Z,3.97
2022-11-23T23:50:55.774Z,4.07
2022-11-23T23:53:23.221Z,4.80
2022-11-23T23:56:00.015Z,3.97
2022-11-23T23:58:27.202Z,3.50
